Latest Weather Observations for Tindal

IDD60801

Issued at 7:35 pm CST Saturday 22 November 2014 (issued every 30 minutes, with the page automatically refreshed every 10 minutes)

About weather observations | Map of weather stations | Latest weather observations for NT | Other Formats
Station Details ID: 014932 Name: TINDAL RAAF Lat: -14.52 Lon: 132.38 Height: 133.6 m
Data from the previous 72 hours. | See also: Recent months at Tindal
Date/Time
CST
Temp
°C
App
Temp
°C
Dew
Point
Rel
Hum
%
Delta-T
°C
Wind Press
QNH
hPa
Press
MSL
hPa
Rain
since 9 am
mm
Dir
 
Spd
km/h
Gust
km/h
Spd
kts
Gust
kts
22/07:30pm 35.6 35.1 14.8 28 13.0 NE 11 13 6 7 1008.0 - 0.0
22/07:00pm 36.6 36.9 15.1 27 13.6 NNE 7 15 4 8 1007.9 - 0.0
22/06:30pm 37.4 37.4 15.2 26 14.0 NNE 9 17 5 9 1007.6 - 0.0
22/06:00pm 37.8 39.0 15.0 26 14.4 ENE 2 17 1 9 1007.0 1006.0 0.0
22/05:30pm 38.0 38.0 15.2 26 14.4 NNE 9 17 5 9 1006.6 - 0.0
22/05:00pm 38.6 37.0 15.0 24 14.9 E 17 28 9 15 1006.7 - 0.0
22/04:30pm 38.8 38.8 15.2 24 15.0 E 9 22 5 12 1006.8 - 0.0
22/04:00pm 38.7 38.7 16.3 26 14.4 NE 11 24 6 13 1007.1 - 0.0
22/03:30pm 38.5 37.3 16.2 27 14.3 NE 17 22 9 12 1007.5 - 0.0
22/03:00pm 38.2 38.7 16.5 28 14.0 NNE 9 11 5 6 1008.1 1007.1 0.0
22/02:30pm 37.9 38.5 16.8 29 13.7 NNE 9 20 5 11 1008.6 - 0.0
22/02:00pm 38.0 39.4 17.4 29 13.5 NW 6 15 3 8 1009.2 - 0.0
22/01:30pm 37.1 39.2 17.1 30 13.0 W 2 19 1 10 1010.0 - 0.0
22/01:00pm 36.3 39.7 19.3 37 11.3 CALM 0 0 0 0 1010.7 - 0.0
22/12:30pm 35.6 39.3 19.9 39 10.5 CALM 0 17 0 9 1011.2 - 0.0
22/12:00pm 34.2 36.9 20.6 45 9.2 N 7 17 4 9 1011.8 1010.7 0.0
22/11:30am 34.2 37.1 20.6 45 9.2 NW 6 15 3 8 1012.3 - 0.0
22/11:00am 33.3 35.5 20.4 46 8.6 NW 9 15 5 8 1012.5 - 0.0
22/10:30am 33.1 34.7 19.9 45 8.8 WNW 11 20 6 11 1012.7 - 0.0
22/10:00am 33.0 35.1 20.9 49 8.2 WNW 11 20 6 11 1013.1 - 0.0
22/09:30am 31.6 33.3 21.7 55 6.7 W 15 24 8 13 1013.2 - 0.0
22/09:05am 31.6 33.9 22.0 56 6.5 W 13 19 7 10 1013.3 - 0.0
22/09:00am 31.7 34.3 22.7 59 6.2 W 13 19 7 10 1013.3 1012.3 0.0
22/08:54am 31.4 33.7 22.7 60 6.0 W 15 26 8 14 1013.1 - 0.0
22/08:30am 30.8 32.6 21.9 59 6.0 W 15 24 8 13 1013.0 - 0.0
22/08:00am 29.9 31.9 21.6 61 5.6 NW 13 17 7 9 1012.8 - 0.0
22/07:30am 29.2 33.4 20.9 61 5.5 CALM 0 0 0 0 1012.5 - 0.0
22/07:00am 28.7 32.8 20.7 62 5.3 CALM 0 0 0 0 1012.1 - 0.0
22/06:30am 27.6 31.8 20.9 67 4.5 CALM 0 0 0 0 1011.5 - 0.0
22/06:00am 27.0 30.9 20.3 66 4.4 CALM 0 0 0 0 1011.1 1010.0 0.0
22/05:30am 27.5 31.4 20.3 65 4.7 CALM 0 0 0 0 1010.8 - 0.0
22/05:00am 27.4 31.4 20.5 66 4.6 CALM 0 0 0 0 1010.6 - 0.0
22/04:30am 27.4 31.4 20.5 66 4.6 CALM 0 0 0 0 1010.4 - 0.0
22/04:00am 27.7 31.7 20.5 65 4.8 CALM 0 0 0 0 1010.1 - 0.0
22/03:30am 28.1 32.0 20.4 63 5.1 CALM 0 0 0 0 1009.8 - 0.0
22/03:00am 28.4 32.3 20.4 62 5.3 CALM 0 0 0 0 1009.4 1008.3 0.0
22/02:30am 28.7 32.5 20.2 60 5.6 CALM 0 6 0 3 1009.3 - 0.0
22/02:00am 28.9 32.5 19.8 58 6.0 CALM 0 7 0 4 1009.4 - 0.0
22/01:30am 29.2 32.3 19.5 56 6.4 W 2 11 1 6 1009.8 - 0.0
22/01:00am 29.7 31.0 18.5 51 7.2 W 9 11 5 6 1010.1 - 0.0
22/12:30am 30.5 31.1 18.6 49 7.7 NW 13 15 7 8 1010.3 - 0.0
22/12:00am 30.7 30.8 17.4 45 8.5 NW 13 15 7 8 1010.4 1009.3 0.0
 
Date/Time
CST
Temp
°C
App
Temp
°C
Dew
Point
Rel
Hum
%
Delta-T
°C
Wind Press
QNH
hPa
Press
MSL
hPa
Rain
since 9 am
mm
Dir
 
Spd
km/h
Gust
km/h
Spd
kts
Gust
kts
21/11:30pm 30.7 30.6 17.0 43 8.7 NW 13 15 7 8 1010.3 - 0.0
21/11:00pm 30.9 31.5 17.6 45 8.5 NNW 11 15 6 8 1010.1 - 0.0
21/10:30pm 30.9 32.5 18.3 47 8.2 WNW 7 9 4 5 1009.7 - 0.0
21/10:00pm 31.7 31.9 17.6 43 9.1 WNW 13 15 7 8 1009.3 - 0.0
21/09:30pm 32.0 33.2 18.2 43 8.9 NW 9 13 5 7 1009.1 - 0.0
21/09:00pm 32.7 34.2 17.7 40 9.7 WSW 6 7 3 4 1008.3 1007.3 0.0
21/08:30pm 33.1 34.2 18.1 41 9.7 WNW 9 11 5 6 1008.0 - 0.0
21/08:00pm 34.1 35.9 17.3 36 10.8 N 4 13 2 7 1007.7 - 0.0
21/07:30pm 34.8 35.1 17.9 36 11.0 N 13 24 7 13 1007.4 - 0.0
21/07:00pm 36.5 35.3 17.1 31 12.6 NNW 19 26 10 14 1007.0 - 0.0
21/06:30pm 38.7 36.9 14.5 24 15.2 ENE 17 22 9 12 1006.4 - 0.0
21/06:00pm 39.2 36.8 14.3 23 15.7 NE 20 26 11 14 1006.0 1004.9 0.0
21/05:30pm 40.0 39.1 14.9 22 15.9 E 13 20 7 11 1005.8 - 0.0
21/05:00pm 40.1 37.7 14.3 22 16.3 ENE 20 28 11 15 1005.8 - 0.0
21/04:30pm 40.3 38.5 14.5 22 16.3 ENE 17 28 9 15 1005.9 - 0.0
21/04:00pm 39.5 38.0 15.2 24 15.5 N 17 24 9 13 1006.3 - 0.0
21/03:30pm 39.9 40.6 16.1 24 15.4 SE 7 11 4 6 1006.8 - 0.0
21/03:00pm 39.8 39.8 17.3 27 14.8 WNW 13 20 7 11 1007.1 1006.1 0.0
21/02:30pm 39.0 40.0 17.7 28 14.0 NNW 9 20 5 11 1007.5 - 0.0
21/02:00pm 38.3 39.3 17.7 30 13.5 NNW 9 20 5 11 1007.9 - 0.0
21/01:30pm 37.9 39.7 18.3 31 12.9 WSW 6 19 3 10 1008.6 - 0.0
21/01:00pm 37.9 39.6 19.3 33 12.4 W 9 17 5 9 1009.3 - 0.0
21/12:30pm 38.3 41.9 19.7 34 12.5 CALM 0 15 0 8 1009.8 - 0.0
21/12:00pm 37.7 41.2 19.6 34 12.2 CALM 0 0 0 0 1010.2 1009.1 0.0
21/11:30am 36.2 39.9 20.8 40 10.5 W 2 20 1 11 1010.8 - 0.0
21/11:00am 35.2 37.7 21.1 43 9.6 WNW 9 22 5 12 1011.3 - 0.0
21/10:30am 34.0 36.9 21.8 49 8.3 W 9 17 5 9 1011.9 - 0.0
21/10:00am 33.4 35.8 21.5 49 8.1 WNW 11 19 6 10 1012.3 - 0.0
21/09:30am 32.7 34.9 21.9 53 7.4 NW 13 26 7 14 1012.4 - 0.0
21/09:00am 32.4 34.4 22.2 55 7.0 NW 15 22 8 12 1012.4 1011.3 0.0
21/08:30am 31.6 33.6 22.3 57 6.4 NW 15 26 8 14 1012.4 - 0.0
21/08:00am 30.6 31.8 22.2 61 5.7 NW 19 28 10 15 1012.3 - 0.0
21/07:30am 29.9 32.3 22.9 66 4.8 NNW 15 24 8 13 1012.2 - 0.0
21/07:00am 29.0 31.3 22.7 69 4.3 NNW 15 19 8 10 1011.9 - 0.0
21/06:30am 28.3 31.4 22.8 72 3.8 NNW 11 17 6 9 1011.4 - 0.0
21/06:00am 27.4 32.3 22.3 73 3.5 CALM 0 0 0 0 1011.2 1010.1 0.0
21/05:30am 27.3 32.0 22.0 73 3.6 CALM 0 0 0 0 1011.0 - 0.0
21/05:00am 27.6 32.4 22.1 72 3.7 CALM 0 0 0 0 1010.7 - 0.0
21/04:30am 28.1 32.9 22.1 70 4.1 CALM 0 0 0 0 1010.5 - 0.0
21/04:00am 28.4 33.1 21.9 68 4.4 CALM 0 0 0 0 1010.3 - 0.0
21/03:30am 28.7 33.4 22.0 67 4.5 CALM 0 0 0 0 1010.2 - 0.0
21/03:00am 29.1 33.7 21.8 64 4.9 CALM 0 0 0 0 1010.1 1009.0 0.0
21/02:30am 29.3 33.9 21.8 64 5.1 CALM 0 0 0 0 1010.2 - 0.0
21/02:00am 29.7 34.1 21.4 61 5.6 CALM 0 0 0 0 1010.1 - 0.0
21/01:30am 30.4 34.7 21.2 58 6.2 CALM 0 0 0 0 1009.8 - 0.0
21/01:00am 30.8 32.0 20.7 55 6.8 WNW 15 20 8 11 1009.7 - 0.0
21/12:30am 32.2 31.3 19.8 48 8.2 NW 24 32 13 17 1009.7 - 0.0
21/12:00am 33.0 33.6 16.8 38 10.3 NNW 9 32 5 17 1009.7 1008.6 0.0
 
Date/Time
CST
Temp
°C
App
Temp
°C
Dew
Point
Rel
Hum
%
Delta-T
°C
Wind Press
QNH
hPa
Press
MSL
hPa
Rain
since 9 am
mm
Dir
 
Spd
km/h
Gust
km/h
Spd
kts
Gust
kts
20/11:30pm 31.3 33.0 15.3 38 9.9 CALM 0 0 0 0 1009.7 - 0.0
20/11:00pm 32.5 34.0 14.6 34 11.0 CALM 0 0 0 0 1009.6 - 0.0
20/10:30pm 33.2 34.6 14.3 32 11.6 CALM 0 0 0 0 1009.4 - 0.0
20/10:00pm 32.2 33.8 14.8 35 10.8 CALM 0 0 0 0 1009.2 - 0.0
20/09:30pm 32.5 33.8 14.1 32 11.3 CALM 0 0 0 0 1008.9 - 0.0
20/09:00pm 33.1 34.4 14.2 32 11.6 CALM 0 0 0 0 1008.6 1007.5 0.0
20/08:30pm 34.3 35.3 13.2 28 12.8 CALM 0 0 0 0 1008.3 - 0.0
20/08:00pm 35.0 36.0 13.2 27 13.3 CALM 0 0 0 0 1007.9 - 0.0
20/07:30pm 35.9 36.8 12.8 25 14.0 CALM 0 0 0 0 1007.4 - 0.0
20/07:00pm 37.2 38.0 12.6 23 15.0 CALM 0 4 0 2 1007.1 - 0.0
20/06:30pm 38.1 38.2 12.7 22 15.6 E 4 17 2 9 1006.8 - 0.0
20/06:00pm 39.0 36.2 12.7 21 16.2 NE 19 24 10 13 1006.5 1005.5 0.0
20/05:30pm 40.0 36.4 12.0 19 17.1 E 22 35 12 19 1006.5 - 0.0
20/05:00pm 40.1 36.7 11.2 18 17.5 E 20 28 11 15 1006.4 - 0.0
20/04:30pm 40.1 36.7 11.2 18 17.5 E 20 32 11 17 1006.5 - 0.0
20/04:00pm 39.3 35.3 10.6 18 17.1 ENE 22 28 12 15 1006.9 - 0.0
20/03:30pm 39.8 36.8 11.8 19 17.0 ENE 19 28 10 15 1007.1 - 0.0
20/03:00pm 40.0 36.2 11.2 18 17.4 ENE 22 32 12 17 1007.3 1006.3 0.0
20/02:30pm 39.8 37.9 11.8 19 17.0 NNE 13 24 7 13 1007.8 - 0.0
20/02:00pm 38.5 35.9 10.8 19 16.5 N 15 26 8 14 1008.2 - 0.0
20/01:30pm 38.6 36.6 11.6 20 16.3 N 13 26 7 14 1008.9 - 0.0
20/01:00pm 38.1 36.5 12.7 22 15.6 E 13 22 7 12 1009.6 - 0.0
20/12:30pm 37.5 38.0 12.8 22 15.1 WNW 2 11 1 6 1010.2 - 0.0
20/12:00pm 38.2 38.5 13.4 23 15.4 NNE 4 28 2 15 1010.8 1009.7 0.0
20/11:30am 36.7 37.3 17.8 32 12.4 W 11 20 6 11 1011.2 - 0.0
20/11:00am 34.5 36.6 18.1 37 10.7 WNW 4 15 2 8 1011.8 - 0.0
20/10:30am 34.4 37.9 19.6 41 9.8 CALM 0 13 0 7 1012.2 - 0.0
20/10:00am 34.1 37.0 19.0 41 10.0 W 2 11 1 6 1012.4 - 0.0
20/09:30am 32.5 34.6 19.4 46 8.6 WNW 7 15 4 8 1012.6 - 0.0
20/09:00am 31.6 35.4 20.2 50 7.6 CALM 0 11 0 6 1012.7 1011.6 0.0
20/08:30am 30.5 34.7 21.0 57 6.4 CALM 0 2 0 1 1012.6 - 0.0
20/08:00am 30.1 34.4 21.2 59 6.0 CALM 0 0 0 0 1012.4 - 0.0
20/07:30am 29.2 33.0 20.1 58 6.0 CALM 0 2 0 1 1012.1 - 0.0
20/07:00am 28.2 32.3 20.7 63 5.0 CALM 0 0 0 0 1011.8 - 0.0
20/06:30am 26.0 29.6 20.6 72 3.6 NNE 2 6 1 3 1011.5 - 0.0
20/06:00am 25.4 28.1 20.6 75 3.2 N 7 9 4 5 1011.2 1010.1 0.0
20/05:30am 26.8 30.0 21.3 72 3.7 NW 6 7 3 4 1010.9 - 0.0
20/05:00am 27.0 29.7 21.3 71 3.8 NNW 9 9 5 5 1010.6 - 0.0
20/04:30am 27.2 30.1 21.0 69 4.1 NW 7 9 4 5 1010.5 - 0.0
20/04:00am 27.7 30.1 20.8 66 4.6 WNW 9 13 5 7 1010.4 - 0.0
20/03:30am 27.9 30.1 19.7 61 5.4 NNW 7 7 4 4 1010.2 - 0.0
20/03:00am 28.0 30.5 19.8 61 5.4 NW 6 6 3 3 1010.2 1009.1 0.0
20/02:30am 28.6 30.9 19.5 58 5.9 N 6 9 3 5 1010.3 - 0.0
20/02:00am 28.8 30.5 19.4 56 6.1 NNW 9 13 5 7 1010.4 - 0.0
20/01:30am 29.6 32.4 19.6 55 6.6 NNW 4 13 2 7 1010.7 - 0.0
20/01:00am 29.9 31.7 19.6 54 6.8 NNW 9 15 5 8 1010.9 - 0.0
20/12:30am 30.5 32.5 19.2 51 7.4 NNW 7 15 4 8 1010.9 - 0.0
20/12:00am 31.1 32.2 18.8 48 8.0 NNW 11 20 6 11 1011.1 1010.0 0.0
 
Date/Time
CST
Temp
°C
App
Temp
°C
Dew
Point
Rel
Hum
%
Delta-T
°C
Wind Press
QNH
hPa
Press
MSL
hPa
Rain
since 9 am
mm
Dir
 
Spd
km/h
Gust
km/h
Spd
kts
Gust
kts
19/11:30pm 31.9 33.6 18.5 45 8.7 NNW 7 17 4 9 1010.9 - 0.0
19/11:00pm 30.2 32.4 16.6 44 8.6 CALM 0 2 0 1 1010.7 - 0.0
19/10:30pm 30.7 32.7 15.9 40 9.2 CALM 0 0 0 0 1010.5 - 0.0
19/10:00pm 31.2 33.5 16.8 42 9.1 CALM 0 0 0 0 1010.1 - 0.0
19/09:30pm 32.6 34.1 14.7 34 11.1 CALM 0 0 0 0 1009.5 - 0.0
19/09:00pm 33.2 34.8 14.8 33 11.4 CALM 0 0 0 0 1009.1 1008.0 0.0
19/08:30pm 33.9 35.3 14.4 31 12.1 CALM 0 0 0 0 1008.9 - 0.0
19/08:00pm 34.5 35.7 13.9 29 12.7 CALM 0 0 0 0 1008.7 - 0.0

Other Formats:

Comma delimited format used in spreadsheet applications
http://www.bom.gov.au/fwo/IDD60801/IDD60801.94131.axf

JavaScript Object Notation format (JSON) in row-major order
http://www.bom.gov.au/fwo/IDD60801/IDD60801.94131.json